Time;durP1;ratioP1;P1;durP2;ratioP2;P2;SDS_P1;SDS_P2;PMS_P1;PMS_P2;Temp;Humidity;BMP_temperature;BMP_pressure;BME280_temperature;BME280_humidity;BME280_pressure;Samples;Min_cycle;Max_cycle;Signal;HPM_P1;HPM_P2
2023/03/15 00:00:44;;;;;;;0.57;0.00;;;7.00;85.90;;;;;;4977779;28;87678;-70
2023/03/15 00:03:10;;;;;;;0.68;0.00;;;7.00;85.80;;;;;;4985716;28;89570;-71
2023/03/15 00:05:40;;;;;;;0.88;0.00;;;7.00;86.20;;;;;;4996472;28;87539;-69
2023/03/15 00:08:06;;;;;;;2.85;0.03;;;7.00;86.10;;;;;;4998792;28;88068;-70
2023/03/15 00:10:31;;;;;;;2.05;0.00;;;7.00;85.90;;;;;;4994317;28;87901;-70
2023/03/15 00:12:57;;;;;;;0.80;0.00;;;7.00;85.60;;;;;;4976517;28;87661;-70
2023/03/15 00:15:22;;;;;;;1.23;0.10;;;7.00;85.60;;;;;;4994818;28;87669;-72
2023/03/15 00:17:48;;;;;;;0.75;0.00;;;7.00;86.00;;;;;;4986862;28;88858;-67
2023/03/15 00:20:14;;;;;;;1.38;0.10;;;6.90;86.20;;;;;;4977434;28;87848;-69
2023/03/15 00:22:40;;;;;;;1.25;0.00;;;6.90;86.60;;;;;;4995744;28;87830;-71
2023/03/15 00:25:07;;;;;;;1.20;0.00;;;6.90;87.00;;;;;;4975846;28;87752;-72
2023/03/15 00:27:32;;;;;;;0.10;0.00;;;6.90;86.70;;;;;;4977892;28;91157;-67
2023/03/15 00:29:58;;;;;;;0.65;0.00;;;6.90;86.90;;;;;;4978178;28;89501;-71
2023/03/15 00:32:24;;;;;;;0.05;0.00;;;6.90;86.60;;;;;;4988050;28;88933;-68
2023/03/15 00:34:53;;;;;;;1.40;0.00;;;6.90;86.60;;;;;;4976688;28;87578;-69
2023/03/15 00:37:20;;;;;;;0.52;0.00;;;6.70;87.50;;;;;;4979852;28;88059;-69
2023/03/15 00:39:48;;;;;;;2.13;0.00;;;6.20;85.30;;;;;;4978474;28;87849;-70
2023/03/15 00:42:14;;;;;;;0.20;0.00;;;5.60;87.30;;;;;;4987382;28;87112;-69
2023/03/15 00:44:45;;;;;;;0.03;0.00;;;5.20;88.80;;;;;;4991754;28;86664;-69
2023/03/15 00:47:13;;;;;;;0.50;0.00;;;4.80;90.00;;;;;;4977048;28;88844;-69
2023/03/15 00:49:40;;;;;;;0.20;0.00;;;4.60;90.70;;;;;;4976425;28;87419;-70
2023/03/15 00:52:06;;;;;;;0.05;0.00;;;4.60;90.90;;;;;;4966030;28;88786;-69
2023/03/15 00:54:33;;;;;;;0.10;0.00;;;4.60;91.20;;;;;;4977407;28;87172;-70
2023/03/15 00:57:00;;;;;;;0.15;0.00;;;4.60;91.40;;;;;;4978627;28;87788;-71
2023/03/15 00:59:28;;;;;;;1.85;0.00;;;4.70;91.40;;;;;;4978437;28;87360;-71
2023/03/15 01:01:54;;;;;;;0.35;0.00;;;4.80;90.80;;;;;;4977603;28;87344;-70
2023/03/15 01:04:19;;;;;;;0.00;0.00;;;4.90;90.70;;;;;;4998140;28;87580;-69
2023/03/15 01:06:45;;;;;;;0.03;0.00;;;4.90;90.30;;;;;;4997969;28;88624;-69
2023/03/15 01:09:11;;;;;;;0.30;0.00;;;5.00;89.40;;;;;;4985429;28;87594;-70
2023/03/15 01:11:37;;;;;;;0.13;0.00;;;5.00;89.70;;;;;;4966022;28;87586;-70
2023/03/15 01:14:03;;;;;;;0.35;0.00;;;5.10;89.30;;;;;;4983479;28;87207;-70
2023/03/15 01:16:30;;;;;;;0.22;0.00;;;5.30;89.00;;;;;;4993219;28;89127;-70
2023/03/15 01:18:56;;;;;;;0.15;0.00;;;5.30;88.70;;;;;;4998151;28;88732;-72
2023/03/15 01:21:22;;;;;;;0.25;0.00;;;5.30;88.70;;;;;;4997989;28;87272;-68
2023/03/15 01:23:49;;;;;;;0.00;0.00;;;5.30;88.70;;;;;;4986801;28;87186;-68
2023/03/15 01:26:16;;;;;;;0.28;0.00;;;5.40;88.70;;;;;;4965789;28;88948;-71
2023/03/15 01:28:41;;;;;;;0.60;0.00;;;5.40;88.10;;;;;;4977775;28;87568;-73
2023/03/15 01:31:15;;;;;;;0.10;0.00;;;5.50;88.00;;;;;;4978178;28;88046;-68
2023/03/15 01:33:41;;;;;;;0.15;0.00;;;5.50;88.40;;;;;;4977183;28;86860;-71
2023/03/15 01:36:07;;;;;;;0.10;0.00;;;5.50;88.10;;;;;;4984674;28;88031;-69
2023/03/15 01:38:33;;;;;;;1.13;0.00;;;5.60;87.90;;;;;;4977616;28;87502;-70
2023/03/15 01:40:59;;;;;;;0.43;0.00;;;5.60;88.10;;;;;;4972780;28;88707;-72
2023/03/15 01:43:28;;;;;;;0.13;0.00;;;5.60;88.60;;;;;;4975218;28;87376;-71
2023/03/15 01:46:15;;;;;;;0.15;0.00;;;5.70;88.00;;;;;;4978033;28;88251;-68
2023/03/15 01:48:46;;;;;;;0.30;0.00;;;5.80;87.70;;;;;;4986590;28;87543;-68
2023/03/15 01:51:15;;;;;;;0.32;0.00;;;5.70;87.70;;;;;;4975423;28;87291;-69
2023/03/15 01:53:44;;;;;;;0.10;0.00;;;5.80;87.50;;;;;;4978520;28;87340;-68
2023/03/15 01:56:10;;;;;;;0.73;0.00;;;5.80;87.10;;;;;;4977529;28;87525;-71
2023/03/15 01:58:38;;;;;;;1.05;0.00;;;5.90;87.60;;;;;;4978041;28;87006;-68
2023/03/15 02:01:03;;;;;;;1.15;0.10;;;6.00;86.60;;;;;;4972012;28;87193;-70
2023/03/15 02:03:36;;;;;;;0.57;0.00;;;6.00;85.80;;;;;;4990986;28;87315;-69
2023/03/15 02:06:08;;;;;;;0.60;0.00;;;6.10;86.10;;;;;;4996839;28;88842;-69
2023/03/15 02:08:38;;;;;;;0.20;0.00;;;6.00;86.20;;;;;;4995352;28;88732;-75
2023/03/15 02:11:04;;;;;;;;;;;6.00;85.60;;;;;;4986188;28;89017;-72
2023/03/15 02:13:32;;;;;;;0.40;0.00;;;6.00;85.70;;;;;;4979188;28;87892;-70
2023/03/15 02:15:58;;;;;;;1.23;0.08;;;5.90;86.10;;;;;;4980013;28;87279;-71
2023/03/15 02:18:24;;;;;;;0.90;0.00;;;6.00;86.80;;;;;;4974117;28;87391;-70
2023/03/15 02:20:59;;;;;;;1.30;0.05;;;6.00;85.90;;;;;;4979186;28;87292;-69
2023/03/15 02:23:26;;;;;;;1.25;0.00;;;6.00;86.40;;;;;;4981725;28;86910;-68
2023/03/15 02:25:58;;;;;;;0.30;0.00;;;6.00;85.80;;;;;;4977774;28;87796;-72
2023/03/15 02:28:24;;;;;;;0.32;0.03;;;6.00;85.70;;;;;;4980875;28;87304;-70
2023/03/15 02:30:50;;;;;;;1.58;0.10;;;6.00;85.90;;;;;;4987527;28;88377;-69
2023/03/15 02:33:24;;;;;;;0.60;0.00;;;6.00;86.00;;;;;;4992721;28;88105;-72
2023/03/15 02:35:50;;;;;;;0.60;0.00;;;5.90;86.30;;;;;;4967607;28;88184;-69
2023/03/15 02:38:16;;;;;;;0.98;0.00;;;5.80;89.00;;;;;;4982442;28;87831;-70
2023/03/15 02:40:44;;;;;;;0.70;0.10;;;5.40;87.30;;;;;;5000638;28;87418;-69
2023/03/15 02:43:24;;;;;;;0.77;0.00;;;5.10;87.50;;;;;;4982532;28;87417;-67
2023/03/15 02:45:50;;;;;;;0.60;0.00;;;4.90;87.80;;;;;;4980326;28;87824;-67
2023/03/15 02:48:16;;;;;;;0.22;0.00;;;4.80;87.50;;;;;;4981128;28;87464;-66
2023/03/15 02:50:42;;;;;;;0.55;0.00;;;4.80;88.00;;;;;;4968707;28;88438;-67
2023/03/15 02:53:08;;;;;;;0.85;0.10;;;4.80;89.10;;;;;;4978158;28;87486;-69
2023/03/15 02:55:34;;;;;;;0.20;0.00;;;4.80;89.30;;;;;;4994121;28;88946;-68
2023/03/15 02:58:01;;;;;;;0.73;0.03;;;4.70;89.40;;;;;;4999476;28;88643;-70
2023/03/15 03:00:27;;;;;;;1.05;0.10;;;4.70;89.90;;;;;;4986823;28;87285;-70
2023/03/15 03:02:54;;;;;;;1.15;0.10;;;4.80;89.40;;;;;;4973244;28;87771;-70
2023/03/15 03:05:20;;;;;;;1.55;0.13;;;4.70;88.90;;;;;;4979895;28;88182;-70
2023/03/15 03:07:46;;;;;;;0.80;0.10;;;4.70;89.30;;;;;;4974696;28;88021;-71
2023/03/15 03:10:14;;;;;;;0.73;0.00;;;4.70;87.80;;;;;;4971604;28;87187;-72
2023/03/15 03:12:40;;;;;;;0.30;0.00;;;4.70;86.90;;;;;;4990455;28;86926;-72
2023/03/15 03:15:07;;;;;;;0.70;0.00;;;4.70;87.10;;;;;;4980561;28;88038;-70
2023/03/15 03:17:36;;;;;;;1.50;0.00;;;4.70;86.80;;;;;;4977713;28;89001;-71
2023/03/15 03:20:06;;;;;;;1.55;0.10;;;4.70;87.20;;;;;;4984610;28;88366;-68
2023/03/15 03:22:33;;;;;;;1.58;0.10;;;4.70;87.10;;;;;;4978452;28;88966;-69
2023/03/15 03:24:59;;;;;;;0.98;0.00;;;4.70;87.20;;;;;;4975423;28;88087;-69
2023/03/15 03:27:25;;;;;;;1.83;0.10;;;4.60;86.80;;;;;;4987776;28;88764;-71
2023/03/15 03:29:51;;;;;;;0.50;0.10;;;4.70;86.90;;;;;;4999676;28;87202;-70
2023/03/15 03:32:17;;;;;;;1.48;0.10;;;4.70;86.20;;;;;;4980824;28;86955;-69
2023/03/15 03:34:47;;;;;;;1.05;0.20;;;4.70;84.70;;;;;;4979316;28;87720;-70
2023/03/15 03:37:17;;;;;;;1.90;0.10;;;4.60;83.10;;;;;;4978976;28;87846;-70
2023/03/15 03:39:42;;;;;;;1.55;0.13;;;4.60;81.20;;;;;;4979820;28;87620;-69
2023/03/15 03:42:08;;;;;;;2.08;0.10;;;4.60;80.90;;;;;;4972455;28;87465;-69
2023/03/15 03:44:34;;;;;;;1.55;0.20;;;4.60;80.50;;;;;;4975387;28;89187;-72
2023/03/15 03:46:59;;;;;;;1.95;0.10;;;4.60;80.80;;;;;;4978785;28;88228;-69
2023/03/15 03:49:25;;;;;;;1.85;0.13;;;4.60;81.40;;;;;;4994096;28;87691;-70
2023/03/15 03:51:51;;;;;;;1.38;0.10;;;4.50;82.20;;;;;;4999458;28;87360;-71
2023/03/15 03:54:16;;;;;;;1.77;0.10;;;4.50;83.30;;;;;;4998545;28;88527;-70
2023/03/15 03:56:42;;;;;;;0.98;0.10;;;4.50;84.10;;;;;;4986903;28;87747;-67
2023/03/15 03:59:07;;;;;;;4.20;0.10;;;4.40;84.90;;;;;;4973674;28;87454;-70
2023/03/15 04:01:33;;;;;;;1.17;0.10;;;4.40;85.90;;;;;;4981166;28;86968;-70
2023/03/15 04:03:59;;;;;;;2.58;0.10;;;4.40;86.40;;;;;;4998382;28;88171;-70
2023/03/15 04:06:24;;;;;;;1.90;0.10;;;4.40;86.30;;;;;;4999287;28;87414;-68
2023/03/15 04:08:50;;;;;;;1.67;0.10;;;4.40;86.10;;;;;;4985634;28;88368;-69
2023/03/15 04:11:17;;;;;;;1.95;0.10;;;4.40;87.40;;;;;;4987789;28;87397;-68
2023/03/15 04:13:44;;;;;;;2.75;0.10;;;4.30;87.20;;;;;;4997893;28;88199;-68
2023/03/15 04:16:10;;;;;;;4.22;0.13;;;4.30;87.80;;;;;;4970302;28;88305;-70
2023/03/15 04:18:35;;;;;;;2.28;0.20;;;4.40;87.90;;;;;;4975651;28;87105;-70
2023/03/15 04:21:01;;;;;;;1.17;0.10;;;4.30;88.00;;;;;;4976519;28;87532;-69
2023/03/15 04:23:27;;;;;;;2.35;0.10;;;4.30;88.70;;;;;;4995357;28;87639;-71
2023/03/15 04:25:56;;;;;;;1.38;0.10;;;4.40;88.80;;;;;;4997284;28;90023;-69
2023/03/15 04:28:22;;;;;;;0.60;0.10;;;4.40;88.40;;;;;;4979450;28;87348;-70
2023/03/15 04:30:49;;;;;;;2.50;0.10;;;4.40;87.20;;;;;;4978188;28;87491;-73
2023/03/15 04:33:15;;;;;;;1.15;0.10;;;4.40;87.70;;;;;;4982688;28;89112;-72
2023/03/15 04:35:43;;;;;;;2.75;0.10;;;4.40;87.90;;;;;;4978954;28;87822;-69
2023/03/15 04:38:09;;;;;;;1.48;0.10;;;4.50;87.90;;;;;;4978547;28;87510;-70
2023/03/15 04:40:35;;;;;;;0.98;0.10;;;4.60;87.70;;;;;;4977610;28;88219;-69
2023/03/15 04:43:03;;;;;;;2.70;0.10;;;4.60;87.70;;;;;;4994000;28;88150;-69
2023/03/15 04:45:33;;;;;;;2.58;0.10;;;4.50;88.00;;;;;;4983953;28;87328;-71
2023/03/15 04:48:00;;;;;;;2.97;0.20;;;4.50;88.60;;;;;;4970309;28;87470;-69
2023/03/15 04:50:26;;;;;;;2.38;0.10;;;4.50;89.10;;;;;;4969092;28;86599;-69
2023/03/15 04:52:52;;;;;;;4.18;0.20;;;4.50;88.50;;;;;;4981215;28;88191;-69
2023/03/15 04:55:18;;;;;;;5.72;0.20;;;4.50;88.30;;;;;;4990850;28;88337;-69
2023/03/15 04:57:43;;;;;;;3.53;0.10;;;4.60;88.90;;;;;;4987764;28;88279;-69
2023/03/15 05:00:11;;;;;;;1.52;0.20;;;4.60;89.20;;;;;;4978682;28;87594;-68
2023/03/15 05:02:40;;;;;;;2.45;0.15;;;4.70;89.10;;;;;;4985634;28;87427;-69
2023/03/15 05:05:07;;;;;;;4.60;0.20;;;4.70;88.80;;;;;;4977974;28;87875;-70
2023/03/15 05:07:34;;;;;;;2.50;0.17;;;4.70;88.60;;;;;;4971762;28;87153;-70
2023/03/15 05:10:00;;;;;;;1.42;0.10;;;4.80;88.80;;;;;;4977656;28;88256;-68
2023/03/15 05:12:26;;;;;;;1.40;0.20;;;4.80;87.10;;;;;;4977316;28;88556;-68
2023/03/15 05:14:52;;;;;;;2.15;0.10;;;4.70;87.50;;;;;;4978215;28;87710;-68
2023/03/15 05:17:18;;;;;;;0.65;0.10;;;4.70;87.90;;;;;;4979266;28;87779;-68
2023/03/15 05:19:44;;;;;;;1.83;0.20;;;4.70;88.10;;;;;;4976196;28;87419;-69
2023/03/15 05:22:10;;;;;;;1.67;0.20;;;4.70;88.00;;;;;;4973343;28;88495;-68
2023/03/15 05:24:36;;;;;;;1.10;0.17;;;4.60;88.10;;;;;;4966253;28;88889;-69
2023/03/15 05:27:03;;;;;;;1.10;0.20;;;4.60;88.40;;;;;;4975104;28;87522;-71
2023/03/15 05:29:29;;;;;;;4.70;0.10;;;4.60;88.80;;;;;;4989316;28;87626;-69
2023/03/15 05:31:54;;;;;;;3.53;0.22;;;4.50;89.10;;;;;;4997627;28;87332;-72
2023/03/15 05:34:23;;;;;;;2.30;0.30;;;4.50;89.30;;;;;;4980829;28;88167;-70
2023/03/15 05:36:50;;;;;;;1.15;0.10;;;4.30;89.60;;;;;;4972808;28;87420;-68
2023/03/15 05:39:16;;;;;;;1.40;0.15;;;4.30;90.00;;;;;;4964484;28;86612;-70
2023/03/15 05:41:42;;;;;;;3.35;0.30;;;4.20;89.30;;;;;;4972479;28;87615;-70
2023/03/15 05:44:08;;;;;;;1.00;0.10;;;4.20;89.80;;;;;;4977384;28;87802;-69
2023/03/15 05:46:34;;;;;;;1.67;0.10;;;4.10;89.20;;;;;;4973943;28;89588;-70
2023/03/15 05:48:59;;;;;;;2.22;0.20;;;4.00;88.50;;;;;;4977187;28;87599;-68
2023/03/15 05:51:25;;;;;;;2.90;0.25;;;3.90;88.70;;;;;;4975953;28;87566;-74
2023/03/15 05:53:51;;;;;;;2.17;0.50;;;3.80;89.10;;;;;;4967864;28;91733;-69
2023/03/15 05:56:16;;;;;;;2.17;0.20;;;3.80;89.80;;;;;;4978208;28;89385;-69
2023/03/15 05:58:42;;;;;;;5.43;0.22;;;3.80;89.50;;;;;;4970922;28;87605;-69
2023/03/15 06:01:08;;;;;;;2.35;0.10;;;3.80;89.60;;;;;;4993640;28;88159;-69
2023/03/15 06:03:33;;;;;;;1.88;0.25;;;3.80;89.50;;;;;;4978983;28;87350;-69
2023/03/15 06:05:59;;;;;;;1.42;0.20;;;3.80;89.20;;;;;;5003019;28;87304;-68
2023/03/15 06:08:25;;;;;;;3.47;0.28;;;3.80;89.20;;;;;;4979335;28;89313;-69
2023/03/15 06:10:51;;;;;;;1.85;0.20;;;3.80;88.90;;;;;;4976035;28;89739;-69
2023/03/15 06:13:17;;;;;;;2.40;0.20;;;3.90;88.90;;;;;;4992130;28;88910;-71
2023/03/15 06:15:45;;;;;;;4.10;0.40;;;3.90;89.10;;;;;;4977004;28;87216;-70
2023/03/15 06:18:12;;;;;;;1.85;0.17;;;3.90;89.30;;;;;;4976233;28;87574;-70
2023/03/15 06:20:38;;;;;;;4.20;0.30;;;3.90;89.30;;;;;;4980339;28;87749;-69
2023/03/15 06:23:04;;;;;;;4.82;0.40;;;3.90;89.30;;;;;;4986217;28;88329;-69
2023/03/15 06:25:30;;;;;;;2.03;0.30;;;3.90;89.20;;;;;;4994687;28;87411;-71
2023/03/15 06:27:55;;;;;;;2.17;0.22;;;4.00;89.10;;;;;;4984948;28;87039;-69
2023/03/15 06:30:21;;;;;;;2.40;0.20;;;4.10;89.20;;;;;;4980090;28;89575;-69
2023/03/15 06:32:46;;;;;;;2.85;0.20;;;4.30;88.40;;;;;;4968453;28;87881;-70
2023/03/15 06:35:12;;;;;;;4.68;0.40;;;5.70;86.70;;;;;;4971788;28;89988;-70
2023/03/15 06:37:38;;;;;;;1.83;0.32;;;7.30;78.00;;;;;;4980365;28;87382;-70
2023/03/15 06:40:08;;;;;;;3.00;0.22;;;8.60;73.80;;;;;;4977255;28;88041;-71
2023/03/15 06:42:35;;;;;;;3.15;0.32;;;10.20;70.00;;;;;;4977932;28;87707;-71
2023/03/15 06:45:02;;;;;;;4.03;0.45;;;11.30;64.60;;;;;;4982308;28;87423;-70
2023/03/15 06:47:27;;;;;;;4.10;0.40;;;12.00;62.10;;;;;;4972881;28;87277;-70
2023/03/15 06:49:53;;;;;;;3.15;0.70;;;12.50;60.90;;;;;;4976004;28;88372;-71
2023/03/15 06:52:19;;;;;;;2.80;0.50;;;14.50;58.00;;;;;;4976462;28;86623;-71
2023/03/15 06:54:45;;;;;;;2.85;0.70;;;15.80;53.30;;;;;;4980971;28;87609;-72
2023/03/15 06:57:10;;;;;;;3.78;0.95;;;16.80;51.60;;;;;;4974353;28;87460;-74
2023/03/15 06:59:36;;;;;;;4.78;0.70;;;17.90;51.30;;;;;;4980243;28;89268;-73
2023/03/15 07:02:02;;;;;;;4.80;0.77;;;18.70;49.00;;;;;;4979253;28;88817;-74
2023/03/15 07:04:28;;;;;;;7.85;1.20;;;19.50;46.70;;;;;;4979324;28;89000;-75
2023/03/15 07:06:54;;;;;;;3.38;0.90;;;20.50;45.00;;;;;;4973545;28;87933;-75
2023/03/15 07:09:20;;;;;;;2.47;0.43;;;21.00;41.90;;;;;;4983391;28;88646;-73
2023/03/15 07:11:45;;;;;;;2.85;0.68;;;21.40;38.70;;;;;;4974838;28;87466;-74
2023/03/15 07:14:11;;;;;;;2.88;0.60;;;21.80;38.40;;;;;;4980167;28;87427;-71
2023/03/15 07:16:37;;;;;;;2.22;0.75;;;21.50;38.30;;;;;;4977394;28;86714;-78
2023/03/15 07:19:02;;;;;;;4.13;1.20;;;21.40;39.10;;;;;;4971037;28;89138;-80
2023/03/15 07:21:28;;;;;;;2.70;1.33;;;21.70;38.50;;;;;;4971680;28;90057;-73
2023/03/15 07:23:54;;;;;;;2.67;0.55;;;22.30;37.90;;;;;;4968263;28;88379;-72
2023/03/15 07:26:20;;;;;;;2.95;0.70;;;23.00;35.10;;;;;;4970346;28;87379;-73
2023/03/15 07:28:46;;;;;;;3.22;0.68;;;23.30;36.20;;;;;;4975276;28;87623;-73
2023/03/15 07:31:12;;;;;;;2.00;0.52;;;24.00;33.70;;;;;;4971331;28;87817;-76
2023/03/15 07:33:38;;;;;;;2.47;0.52;;;24.70;33.90;;;;;;4974848;28;87129;-78
2023/03/15 07:36:06;;;;;;;1.63;0.55;;;25.20;32.50;;;;;;4978305;28;87730;-77
2023/03/15 07:38:33;;;;;;;2.28;0.98;;;25.60;32.40;;;;;;4967623;28;89593;-75
2023/03/15 07:41:04;;;;;;;3.00;1.15;;;26.40;31.40;;;;;;4972262;28;88290;-70
2023/03/15 07:43:30;;;;;;;2.83;1.10;;;27.10;30.50;;;;;;4972466;28;89016;-70
2023/03/15 07:45:56;;;;;;;5.28;1.05;;;28.10;31.10;;;;;;4976536;28;87682;-70
2023/03/15 07:48:22;;;;;;;4.25;1.65;;;28.70;29.80;;;;;;4965381;28;89808;-72
2023/03/15 07:50:48;;;;;;;2.47;1.17;;;28.40;30.10;;;;;;4975693;28;87425;-72
2023/03/15 07:53:13;;;;;;;2.75;1.00;;;28.20;29.10;;;;;;4970381;28;87157;-77
2023/03/15 07:55:39;;;;;;;2.42;0.95;;;28.30;29.80;;;;;;4969991;28;87432;-71
2023/03/15 07:58:05;;;;;;;3.35;1.35;;;28.10;29.60;;;;;;4975015;28;87859;-73
2023/03/15 08:00:31;;;;;;;3.95;1.40;;;27.60;30.00;;;;;;4976781;28;88685;-73
2023/03/15 08:02:57;;;;;;;5.97;1.33;;;28.00;29.50;;;;;;4978967;28;87362;-74
2023/03/15 08:05:23;;;;;;;2.75;1.52;;;28.70;30.10;;;;;;4977440;28;87170;-74
2023/03/15 08:07:50;;;;;;;5.63;1.90;;;29.20;29.60;;;;;;4977702;28;88870;-73
2023/03/15 08:10:17;;;;;;;3.38;1.55;;;29.10;30.00;;;;;;4991974;28;87335;-73
2023/03/15 08:12:43;;;;;;;2.30;1.42;;;28.80;29.60;;;;;;4975651;28;88312;-73
2023/03/15 08:15:10;;;;;;;2.17;0.93;;;29.20;28.30;;;;;;4975159;28;87315;-72
2023/03/15 08:17:36;;;;;;;2.95;1.33;;;29.40;27.80;;;;;;4970303;28;88234;-76
2023/03/15 08:20:02;;;;;;;3.03;0.93;;;29.40;27.80;;;;;;4974663;28;88639;-71
2023/03/15 08:22:29;;;;;;;2.60;1.30;;;29.10;28.30;;;;;;4987469;28;87865;-71
2023/03/15 08:24:56;;;;;;;2.38;1.50;;;29.30;27.70;;;;;;4975608;28;87872;-74
2023/03/15 08:27:22;;;;;;;3.38;1.13;;;29.50;26.90;;;;;;4975788;28;88201;-72
2023/03/15 08:29:48;;;;;;;6.43;1.10;;;29.40;28.20;;;;;;4985054;28;87961;-72
2023/03/15 08:32:15;;;;;;;2.63;1.17;;;29.30;27.50;;;;;;4972404;28;87460;-72
2023/03/15 08:34:41;;;;;;;2.30;0.93;;;28.60;27.90;;;;;;4966232;28;88047;-72
2023/03/15 08:37:09;;;;;;;3.05;1.15;;;28.20;28.70;;;;;;4964780;28;89677;-72
2023/03/15 08:39:35;;;;;;;3.35;1.15;;;28.80;28.10;;;;;;4973412;28;88353;-72
2023/03/15 08:42:01;;;;;;;3.08;1.70;;;29.30;27.80;;;;;;4986048;28;87833;-75
2023/03/15 08:44:26;;;;;;;2.13;1.10;;;29.30;27.80;;;;;;4975052;28;87644;-74
2023/03/15 08:46:52;;;;;;;2.45;1.25;;;29.10;28.30;;;;;;4974420;28;88101;-72
2023/03/15 08:49:18;;;;;;;2.75;1.27;;;29.80;28.00;;;;;;4979257;28;87879;-71
2023/03/15 08:51:43;;;;;;;5.72;1.15;;;31.00;27.60;;;;;;4989454;28;87681;-72
2023/03/15 08:54:09;;;;;;;2.88;1.65;;;31.50;27.00;;;;;;4977485;28;86627;-73
2023/03/15 08:56:35;;;;;;;2.22;1.10;;;31.50;26.10;;;;;;4966585;28;88084;-71
2023/03/15 08:59:01;;;;;;;3.60;1.40;;;30.70;27.00;;;;;;4967242;28;87678;-73
2023/03/15 09:01:29;;;;;;;2.90;1.27;;;30.80;27.20;;;;;;4975213;28;88442;-72
2023/03/15 09:03:54;;;;;;;2.38;1.35;;;32.10;26.80;;;;;;4991802;28;87466;-71
2023/03/15 09:06:20;;;;;;;2.65;0.80;;;32.50;26.70;;;;;;4966571;28;89942;-72
2023/03/15 09:08:46;;;;;;;1.70;1.23;;;31.90;26.50;;;;;;4967173;28;87596;-71
2023/03/15 09:11:12;;;;;;;2.08;1.52;;;32.50;26.60;;;;;;4993409;28;87558;-70
2023/03/15 09:13:38;;;;;;;2.05;1.13;;;32.60;25.90;;;;;;4996246;28;87447;-73
2023/03/15 09:16:04;;;;;;;2.17;1.50;;;32.70;26.30;;;;;;4978865;28;88103;-71
2023/03/15 09:18:30;;;;;;;2.03;1.35;;;33.60;26.20;;;;;;4986789;28;87730;-72
2023/03/15 09:20:56;;;;;;;1.73;1.23;;;34.00;25.60;;;;;;4984800;28;87556;-71
2023/03/15 09:23:22;;;;;;;2.00;1.10;;;31.50;26.50;;;;;;4967229;28;87346;-71
2023/03/15 09:25:48;;;;;;;3.58;1.38;;;29.80;27.50;;;;;;4971001;28;89059;-71
2023/03/15 09:28:13;;;;;;;2.05;0.90;;;31.00;26.30;;;;;;4976065;28;88424;-73
2023/03/15 09:30:40;;;;;;;3.30;0.70;;;29.10;26.90;;;;;;4983836;28;87765;-72
2023/03/15 09:33:06;;;;;;;1.73;0.52;;;26.50;28.40;;;;;;4984653;28;87808;-73
2023/03/15 09:35:32;;;;;;;1.88;1.02;;;25.20;29.60;;;;;;4992174;28;87480;-74
2023/03/15 09:37:58;;;;;;;3.13;1.30;;;25.10;30.00;;;;;;4993036;28;87884;-72
2023/03/15 09:40:30;;;;;;;1.88;0.98;;;27.50;29.40;;;;;;4964664;28;88170;-73
2023/03/15 09:43:05;;;;;;;2.25;0.52;;;30.00;28.20;;;;;;4970464;28;86460;-72
2023/03/15 09:45:55;;;;;;;1.95;0.35;;;27.40;27.90;;;;;;4974037;28;87801;-70
2023/03/15 09:48:45;;;;;;;1.42;0.50;;;24.30;29.60;;;;;;4972290;28;87901;-72
2023/03/15 09:51:46;;;;;;;1.45;0.25;;;22.00;31.90;;;;;;4987230;28;88764;-71
2023/03/15 09:54:17;;;;;;;2.42;0.30;;;20.20;33.30;;;;;;4975734;28;87389;-73
2023/03/15 09:57:02;;;;;;;1.48;0.30;;;20.50;33.80;;;;;;4969862;28;88188;-72
2023/03/15 09:59:36;;;;;;;1.35;0.20;;;21.10;32.40;;;;;;4973858;28;87886;-71
2023/03/15 10:02:24;;;;;;;2.50;0.38;;;21.10;32.10;;;;;;4970921;28;87470;-70
2023/03/15 10:05:15;;;;;;;1.00;0.25;;;20.90;34.40;;;;;;4978014;28;87526;-72
2023/03/15 10:07:41;;;;;;;1.40;0.32;;;23.40;29.60;;;;;;4967900;28;88986;-74
2023/03/15 10:10:27;;;;;;;1.48;0.38;;;22.50;30.00;;;;;;4969845;28;89413;-73
2023/03/15 10:13:12;;;;;;;1.13;0.57;;;23.50;29.80;;;;;;4969811;28;87539;-72
2023/03/15 10:15:58;;;;;;;0.55;0.13;;;24.00;29.50;;;;;;4971679;28;87588;-70
2023/03/15 10:18:45;;;;;;;1.33;0.40;;;22.80;29.00;;;;;;4974852;28;88195;-72
2023/03/15 10:21:40;;;;;;;1.40;0.52;;;23.70;29.90;;;;;;4982992;28;88729;-72
2023/03/15 10:24:21;;;;;;;0.80;0.25;;;26.10;28.30;;;;;;4973027;28;89390;-77
2023/03/15 10:26:50;;;;;;;1.02;0.57;;;27.60;27.10;;;;;;4968710;28;88125;-71
2023/03/15 10:29:19;;;;;;;1.23;0.73;;;27.30;27.80;;;;;;4966626;28;88638;-70
2023/03/15 10:31:46;;;;;;;1.15;0.40;;;27.70;27.40;;;;;;4969025;28;90490;-71
2023/03/15 10:34:13;;;;;;;0.82;0.60;;;27.40;27.30;;;;;;4976435;28;87256;-73
2023/03/15 10:36:45;;;;;;;1.58;0.38;;;26.40;28.20;;;;;;4969210;28;87179;-72
2023/03/15 10:39:11;;;;;;;1.23;0.40;;;25.10;29.00;;;;;;4965565;28;88054;-70
2023/03/15 10:41:46;;;;;;;0.65;0.22;;;23.60;30.10;;;;;;4978742;28;88102;-72
2023/03/15 10:44:25;;;;;;;1.00;0.47;;;22.20;30.80;;;;;;4966999;28;89108;-72
2023/03/15 10:47:20;;;;;;;1.05;0.22;;;20.70;31.80;;;;;;4982397;28;88601;-73
2023/03/15 10:49:47;;;;;;;2.42;0.20;;;19.80;34.90;;;;;;4976358;28;89900;-72
2023/03/15 10:52:39;;;;;;;0.60;0.10;;;18.70;32.80;;;;;;4985038;28;87630;-73
2023/03/15 10:55:13;;;;;;;0.55;0.20;;;17.40;37.00;;;;;;4973734;28;87901;-73
2023/03/15 10:57:54;;;;;;;0.40;0.10;;;16.70;36.00;;;;;;4984656;28;87416;-72
2023/03/15 11:00:31;;;;;;;0.82;0.10;;;16.40;37.30;;;;;;4972874;28;87678;-70
2023/03/15 11:03:06;;;;;;;0.77;0.10;;;16.30;37.10;;;;;;4983622;28;86571;-71
2023/03/15 11:05:41;;;;;;;0.55;0.20;;;15.60;37.40;;;;;;4978296;28;87324;-73
2023/03/15 11:08:13;;;;;;;0.60;0.10;;;14.90;39.20;;;;;;4975425;28;87354;-71
2023/03/15 11:10:39;;;;;;;0.43;0.08;;;14.60;40.00;;;;;;4967532;28;89075;-73
2023/03/15 11:13:26;;;;;;;0.40;0.10;;;14.90;41.00;;;;;;4968879;28;88182;-73
2023/03/15 11:16:03;;;;;;;0.75;0.10;;;15.00;42.00;;;;;;4974553;28;87926;-71
2023/03/15 11:18:52;;;;;;;1.15;0.10;;;15.10;41.60;;;;;;4978042;28;87427;-72
2023/03/15 11:21:19;;;;;;;;;;;15.20;44.30;;;;;;4972363;28;88695;-75
2023/03/15 11:23:49;;;;;;;1.27;0.10;;;15.20;42.50;;;;;;4974775;28;87969;-73
2023/03/15 11:26:24;;;;;;;2.08;0.10;;;15.10;41.10;;;;;;4977974;28;89554;-73
2023/03/15 11:28:53;;;;;;;0.80;0.10;;;15.10;44.00;;;;;;4986458;28;86744;-72
2023/03/15 11:31:20;;;;;;;1.40;0.20;;;15.30;40.20;;;;;;4983385;28;88911;-71
2023/03/15 11:34:23;;;;;;;2.42;0.17;;;15.50;43.50;;;;;;4966308;28;88431;-72
2023/03/15 11:36:57;;;;;;;1.42;0.10;;;15.70;46.90;;;;;;4976193;28;88581;-72
2023/03/15 11:39:35;;;;;;;1.25;0.10;;;15.50;40.70;;;;;;4971116;28;87422;-70
2023/03/15 11:42:07;;;;;;;2.60;0.30;;;15.20;42.50;;;;;;4964920;28;87721;-73
2023/03/15 11:44:55;;;;;;;2.65;0.20;;;15.20;42.10;;;;;;4973620;28;89248;-73
2023/03/15 11:47:38;;;;;;;5.28;0.77;;;15.10;42.20;;;;;;4971257;28;87294;-71
2023/03/15 11:50:04;;;;;;;4.60;0.32;;;14.80;45.90;;;;;;4987496;28;87467;-72
2023/03/15 11:52:31;;;;;;;5.88;0.77;;;15.00;43.00;;;;;;4973645;28;88382;-73
2023/03/15 11:54:59;;;;;;;1.08;0.10;;;15.50;44.30;;;;;;4972370;28;87739;-75
2023/03/15 11:57:28;;;;;;;1.15;0.20;;;15.30;43.70;;;;;;4980359;28;87616;-69
2023/03/15 11:59:55;;;;;;;1.45;0.10;;;15.10;43.50;;;;;;4989766;28;87412;-69
2023/03/15 12:02:25;;;;;;;1.55;0.10;;;15.10;40.90;;;;;;4966015;28;89909;-71
2023/03/15 12:04:55;;;;;;;3.83;0.50;;;15.10;40.80;;;;;;4977854;28;89264;-71
2023/03/15 12:07:23;;;;;;;3.40;0.75;;;14.60;42.40;;;;;;4973587;28;87416;-69
2023/03/15 12:09:50;;;;;;;5.57;0.40;;;14.40;44.40;;;;;;4973296;28;87068;-71
2023/03/15 12:12:25;;;;;;;10.00;1.73;;;14.20;43.20;;;;;;4972043;28;88386;-72
2023/03/15 12:15:06;;;;;;;1.00;0.13;;;14.30;47.30;;;;;;4977185;28;87989;-73
2023/03/15 12:17:36;;;;;;;5.35;0.30;;;14.50;42.20;;;;;;4966473;28;89162;-70
2023/03/15 12:20:11;;;;;;;1.42;0.17;;;14.70;42.30;;;;;;4970406;28;88183;-73
2023/03/15 12:23:15;;;;;;;4.57;0.20;;;14.70;40.90;;;;;;4969976;28;89565;-70
2023/03/15 12:26:04;;;;;;;13.30;1.63;;;14.20;42.00;;;;;;4965456;28;89967;-71
2023/03/15 12:28:39;;;;;;;1.02;0.10;;;14.30;47.80;;;;;;4968650;28;88658;-75
2023/03/15 12:31:09;;;;;;;12.20;1.90;;;14.30;41.00;;;;;;4970708;28;87506;-73
2023/03/15 12:33:57;;;;;;;;;;;14.40;46.80;;;;;;4967501;28;88351;-72
2023/03/15 12:36:36;;;;;;;6.32;0.85;;;14.50;44.60;;;;;;4967770;28;88158;-70
2023/03/15 12:39:14;;;;;;;2.70;0.10;;;14.70;45.10;;;;;;4969195;28;87626;-71
2023/03/15 12:41:45;;;;;;;9.90;1.33;;;14.50;40.50;;;;;;4963899;28;88462;-72
2023/03/15 12:44:32;;;;;;;6.07;0.85;;;14.10;44.70;;;;;;4974037;28;88660;-71
2023/03/15 12:46:59;;;;;;;2.13;0.10;;;13.80;43.30;;;;;;4967299;28;87430;-72
2023/03/15 12:49:30;;;;;;;5.20;0.73;;;13.70;40.80;;;;;;4975364;28;87762;-73
2023/03/15 12:52:09;;;;;;;0.50;0.00;;;14.10;43.80;;;;;;4977022;28;87394;-72
2023/03/15 12:55:17;;;;;;;2.00;0.40;;;14.30;42.80;;;;;;4978506;28;88688;-72
2023/03/15 12:57:52;;;;;;;1.85;0.10;;;14.80;42.50;;;;;;4987116;28;88475;-71
2023/03/15 13:00:22;;;;;;;2.22;0.10;;;14.80;40.70;;;;;;4989247;28;87577;-73
2023/03/15 13:02:53;;;;;;;;;;;14.60;40.20;;;;;;4981126;28;87648;-72